sensor_id;sensor_type;location;lat;lon;timestamp;temperature;humidity
75466;HTU21D;64049;46.290;44.240;2022-12-29T00:00:02;-0.02;84.74
75466;HTU21D;64049;46.290;44.240;2022-12-29T00:02:38;-0.07;84.81
75466;HTU21D;64049;46.290;44.240;2022-12-29T00:05:06;-0.11;84.89
75466;HTU21D;64049;46.290;44.240;2022-12-29T00:07:32;-0.13;84.93
75466;HTU21D;64049;46.290;44.240;2022-12-29T00:09:58;-0.11;85.00
75466;HTU21D;64049;46.290;44.240;2022-12-29T00:12:24;-0.07;85.08
75466;HTU21D;64049;46.290;44.240;2022-12-29T00:14:50;-0.01;85.08
75466;HTU21D;64049;46.290;44.240;2022-12-29T00:17:34;0.03;85.16
75466;HTU21D;64049;46.290;44.240;2022-12-29T00:20:00;0.10;85.22
75466;HTU21D;64049;46.290;44.240;2022-12-29T00:22:45;0.13;85.20
75466;HTU21D;64049;46.290;44.240;2022-12-29T00:25:30;0.15;85.19
75466;HTU21D;64049;46.290;44.240;2022-12-29T00:28:14;0.14;85.29
75466;HTU21D;64049;46.290;44.240;2022-12-29T00:31:00;0.14;85.30
75466;HTU21D;64049;46.290;44.240;2022-12-29T00:33:45;0.17;85.33
75466;HTU21D;64049;46.290;44.240;2022-12-29T00:36:35;0.21;85.32
75466;HTU21D;64049;46.290;44.240;2022-12-29T00:39:12;0.21;85.30
75466;HTU21D;64049;46.290;44.240;2022-12-29T00:42:06;0.23;85.27
75466;HTU21D;64049;46.290;44.240;2022-12-29T00:44:51;0.24;85.26
75466;HTU21D;64049;46.290;44.240;2022-12-29T00:47:17;0.28;85.28
75466;HTU21D;64049;46.290;44.240;2022-12-29T00:49:44;0.31;85.22
75466;HTU21D;64049;46.290;44.240;2022-12-29T00:52:11;0.27;85.13
75466;HTU21D;64049;46.290;44.240;2022-12-29T00:54:39;0.21;85.19
75466;HTU21D;64049;46.290;44.240;2022-12-29T00:57:07;0.18;85.27
75466;HTU21D;64049;46.290;44.240;2022-12-29T00:59:38;0.12;85.23
75466;HTU21D;64049;46.290;44.240;2022-12-29T01:02:04;0.10;85.29
75466;HTU21D;64049;46.290;44.240;2022-12-29T01:04:31;0.06;85.25
75466;HTU21D;64049;46.290;44.240;2022-12-29T01:06:56;0.01;85.31
75466;HTU21D;64049;46.290;44.240;2022-12-29T01:09:22;0.01;85.42
75466;HTU21D;64049;46.290;44.240;2022-12-29T01:12:08;0.04;85.51
75466;HTU21D;64049;46.290;44.240;2022-12-29T01:14:35;0.04;85.48
75466;HTU21D;64049;46.290;44.240;2022-12-29T01:17:02;0.05;85.49
75466;HTU21D;64049;46.290;44.240;2022-12-29T01:19:28;0.03;85.48
75466;HTU21D;64049;46.290;44.240;2022-12-29T01:21:55;0.05;85.60
75466;HTU21D;64049;46.290;44.240;2022-12-29T01:24:25;0.05;85.56
75466;HTU21D;64049;46.290;44.240;2022-12-29T01:26:51;0.09;85.60
75466;HTU21D;64049;46.290;44.240;2022-12-29T01:29:17;0.14;85.63
75466;HTU21D;64049;46.290;44.240;2022-12-29T01:31:45;0.13;85.56
75466;HTU21D;64049;46.290;44.240;2022-12-29T01:34:11;0.10;85.53
75466;HTU21D;64049;46.290;44.240;2022-12-29T01:36:37;0.08;85.58
75466;HTU21D;64049;46.290;44.240;2022-12-29T01:39:03;0.06;85.55
75466;HTU21D;64049;46.290;44.240;2022-12-29T01:41:29;0.06;85.64
75466;HTU21D;64049;46.290;44.240;2022-12-29T01:43:58;0.07;85.60
75466;HTU21D;64049;46.290;44.240;2022-12-29T01:46:39;0.09;85.65
75466;HTU21D;64049;46.290;44.240;2022-12-29T01:49:19;0.13;85.65
75466;HTU21D;64049;46.290;44.240;2022-12-29T01:51:54;0.13;85.59
75466;HTU21D;64049;46.290;44.240;2022-12-29T01:54:29;0.13;85.61
75466;HTU21D;64049;46.290;44.240;2022-12-29T01:56:59;0.16;85.61
75466;HTU21D;64049;46.290;44.240;2022-12-29T01:59:29;0.23;85.63
75466;HTU21D;64049;46.290;44.240;2022-12-29T02:01:58;0.25;85.55
75466;HTU21D;64049;46.290;44.240;2022-12-29T02:04:26;0.30;85.58
75466;HTU21D;64049;46.290;44.240;2022-12-29T02:06:57;0.32;85.51
75466;HTU21D;64049;46.290;44.240;2022-12-29T02:09:26;0.33;85.47
75466;HTU21D;64049;46.290;44.240;2022-12-29T02:11:52;0.30;85.34
75466;HTU21D;64049;46.290;44.240;2022-12-29T02:14:28;0.19;85.38
75466;HTU21D;64049;46.290;44.240;2022-12-29T02:17:04;0.21;85.52
75466;HTU21D;64049;46.290;44.240;2022-12-29T02:19:42;0.27;85.58
75466;HTU21D;64049;46.290;44.240;2022-12-29T02:38:41;0.37;85.40
75466;HTU21D;64049;46.290;44.240;2022-12-29T02:41:29;0.42;85.42
75466;HTU21D;64049;46.290;44.240;2022-12-29T02:43:59;0.43;85.39
75466;HTU21D;64049;46.290;44.240;2022-12-29T02:49:33;0.46;85.28
75466;HTU21D;64049;46.290;44.240;2022-12-29T02:52:02;0.48;85.27
75466;HTU21D;64049;46.290;44.240;2022-12-29T02:54:29;0.45;85.23
75466;HTU21D;64049;46.290;44.240;2022-12-29T02:57:30;0.46;85.16
75466;HTU21D;64049;46.290;44.240;2022-12-29T03:00:14;0.47;85.11
75466;HTU21D;64049;46.290;44.240;2022-12-29T03:08:04;0.48;85.02
75466;HTU21D;64049;46.290;44.240;2022-12-29T03:11:02;0.51;84.93
75466;HTU21D;64049;46.290;44.240;2022-12-29T03:13:51;0.52;84.85
75466;HTU21D;64049;46.290;44.240;2022-12-29T03:17:05;0.53;84.74
75466;HTU21D;64049;46.290;44.240;2022-12-29T03:19:37;0.52;84.64
75466;HTU21D;64049;46.290;44.240;2022-12-29T03:22:12;0.54;84.53
75466;HTU21D;64049;46.290;44.240;2022-12-29T03:27:37;0.53;84.38
75466;HTU21D;64049;46.290;44.240;2022-12-29T03:30:05;0.53;84.33
75466;HTU21D;64049;46.290;44.240;2022-12-29T03:32:42;0.53;84.27
75466;HTU21D;64049;46.290;44.240;2022-12-29T03:35:15;0.53;84.19
75466;HTU21D;64049;46.290;44.240;2022-12-29T03:37:55;0.53;84.12
75466;HTU21D;64049;46.290;44.240;2022-12-29T03:40:25;0.51;84.10
75466;HTU21D;64049;46.290;44.240;2022-12-29T03:42:52;0.49;84.08
75466;HTU21D;64049;46.290;44.240;2022-12-29T03:45:19;0.46;84.08
75466;HTU21D;64049;46.290;44.240;2022-12-29T03:47:45;0.45;84.13
75466;HTU21D;64049;46.290;44.240;2022-12-29T03:50:12;0.43;84.12
75466;HTU21D;64049;46.290;44.240;2022-12-29T03:52:45;0.43;84.16
75466;HTU21D;64049;46.290;44.240;2022-12-29T03:55:11;0.43;84.17
75466;HTU21D;64049;46.290;44.240;2022-12-29T03:57:38;0.42;84.16
75466;HTU21D;64049;46.290;44.240;2022-12-29T04:00:08;0.40;84.17
75466;HTU21D;64049;46.290;44.240;2022-12-29T04:02:49;0.43;84.18
75466;HTU21D;64049;46.290;44.240;2022-12-29T04:05:19;0.45;84.19
75466;HTU21D;64049;46.290;44.240;2022-12-29T04:07:46;0.45;84.22
75466;HTU21D;64049;46.290;44.240;2022-12-29T04:10:13;0.50;84.19
75466;HTU21D;64049;46.290;44.240;2022-12-29T04:12:39;0.49;84.17
75466;HTU21D;64049;46.290;44.240;2022-12-29T04:15:08;0.51;84.19
75466;HTU21D;64049;46.290;44.240;2022-12-29T04:17:35;0.52;84.19
75466;HTU21D;64049;46.290;44.240;2022-12-29T04:20:02;0.50;84.19
75466;HTU21D;64049;46.290;44.240;2022-12-29T04:22:47;0.50;84.24
75466;HTU21D;64049;46.290;44.240;2022-12-29T04:25:13;0.48;84.25
75466;HTU21D;64049;46.290;44.240;2022-12-29T04:27:40;0.46;84.29
75466;HTU21D;64049;46.290;44.240;2022-12-29T04:30:29;0.46;84.36
75466;HTU21D;64049;46.290;44.240;2022-12-29T04:33:20;0.48;84.39
75466;HTU21D;64049;46.290;44.240;2022-12-29T04:35:47;0.48;84.41
75466;HTU21D;64049;46.290;44.240;2022-12-29T04:38:14;0.48;84.41
75466;HTU21D;64049;46.290;44.240;2022-12-29T04:40:42;0.50;84.45
75466;HTU21D;64049;46.290;44.240;2022-12-29T04:43:11;0.50;84.47
75466;HTU21D;64049;46.290;44.240;2022-12-29T04:46:12;0.52;84.46
75466;HTU21D;64049;46.290;44.240;2022-12-29T04:48:53;0.53;84.45
75466;HTU21D;64049;46.290;44.240;2022-12-29T04:51:36;0.52;84.47
75466;HTU21D;64049;46.290;44.240;2022-12-29T04:57:26;0.53;84.48
75466;HTU21D;64049;46.290;44.240;2022-12-29T04:59:55;0.55;84.52
75466;HTU21D;64049;46.290;44.240;2022-12-29T05:02:22;0.57;84.48
75466;HTU21D;64049;46.290;44.240;2022-12-29T05:05:21;0.55;84.48
75466;HTU21D;64049;46.290;44.240;2022-12-29T05:07:50;0.57;84.51
75466;HTU21D;64049;46.290;44.240;2022-12-29T05:10:17;0.55;84.50
75466;HTU21D;64049;46.290;44.240;2022-12-29T05:12:43;0.55;84.50
75466;HTU21D;64049;46.290;44.240;2022-12-29T05:15:11;0.55;84.49
75466;HTU21D;64049;46.290;44.240;2022-12-29T05:17:38;0.57;84.51
75466;HTU21D;64049;46.290;44.240;2022-12-29T05:20:06;0.58;84.51
75466;HTU21D;64049;46.290;44.240;2022-12-29T05:22:33;0.58;84.48
75466;HTU21D;64049;46.290;44.240;2022-12-29T05:25:19;0.59;84.48
75466;HTU21D;64049;46.290;44.240;2022-12-29T05:28:08;0.60;84.44
75466;HTU21D;64049;46.290;44.240;2022-12-29T05:30:48;0.59;84.45
75466;HTU21D;64049;46.290;44.240;2022-12-29T05:33:18;0.58;84.43
75466;HTU21D;64049;46.290;44.240;2022-12-29T05:35:46;0.59;84.44
75466;HTU21D;64049;46.290;44.240;2022-12-29T05:38:13;0.60;84.42
75466;HTU21D;64049;46.290;44.240;2022-12-29T05:40:39;0.62;84.41
75466;HTU21D;64049;46.290;44.240;2022-12-29T05:43:16;0.63;84.36
75466;HTU21D;64049;46.290;44.240;2022-12-29T05:46:01;0.63;84.33
75466;HTU21D;64049;46.290;44.240;2022-12-29T05:48:55;0.64;84.31
75466;HTU21D;64049;46.290;44.240;2022-12-29T05:51:33;0.65;84.29
75466;HTU21D;64049;46.290;44.240;2022-12-29T05:53:59;0.64;84.29
75466;HTU21D;64049;46.290;44.240;2022-12-29T05:56:26;0.67;84.26
75466;HTU21D;64049;46.290;44.240;2022-12-29T05:58:56;0.69;84.19
75466;HTU21D;64049;46.290;44.240;2022-12-29T06:01:23;0.73;84.14
75466;HTU21D;64049;46.290;44.240;2022-12-29T06:03:49;0.75;84.12
75466;HTU21D;64049;46.290;44.240;2022-12-29T06:06:18;0.77;84.07
75466;HTU21D;64049;46.290;44.240;2022-12-29T06:08:45;0.77;84.01
75466;HTU21D;64049;46.290;44.240;2022-12-29T06:11:13;0.79;83.96
75466;HTU21D;64049;46.290;44.240;2022-12-29T06:13:43;0.81;83.92
75466;HTU21D;64049;46.290;44.240;2022-12-29T06:16:09;0.83;83.90
75466;HTU21D;64049;46.290;44.240;2022-12-29T06:18:37;0.83;83.86
75466;HTU21D;64049;46.290;44.240;2022-12-29T06:21:04;0.86;83.80
75466;HTU21D;64049;46.290;44.240;2022-12-29T06:23:31;0.87;83.74
75466;HTU21D;64049;46.290;44.240;2022-12-29T06:25:58;0.87;83.71
75466;HTU21D;64049;46.290;44.240;2022-12-29T06:28:24;0.89;83.68
75466;HTU21D;64049;46.290;44.240;2022-12-29T06:30:50;0.91;83.65
75466;HTU21D;64049;46.290;44.240;2022-12-29T06:33:18;0.93;83.64
75466;HTU21D;64049;46.290;44.240;2022-12-29T06:35:44;0.94;83.58
75466;HTU21D;64049;46.290;44.240;2022-12-29T06:38:11;0.93;83.52
75466;HTU21D;64049;46.290;44.240;2022-12-29T06:40:37;0.95;83.47
75466;HTU21D;64049;46.290;44.240;2022-12-29T06:43:22;0.96;83.39
75466;HTU21D;64049;46.290;44.240;2022-12-29T06:46:04;0.98;83.32
75466;HTU21D;64049;46.290;44.240;2022-12-29T06:48:30;1.02;83.28
75466;HTU21D;64049;46.290;44.240;2022-12-29T06:50:56;1.05;83.17
75466;HTU21D;64049;46.290;44.240;2022-12-29T06:53:22;1.08;83.07
75466;HTU21D;64049;46.290;44.240;2022-12-29T06:55:48;1.12;82.89
75466;HTU21D;64049;46.290;44.240;2022-12-29T06:58:14;1.18;82.71
75466;HTU21D;64049;46.290;44.240;2022-12-29T07:00:40;1.20;82.60
75466;HTU21D;64049;46.290;44.240;2022-12-29T07:03:06;1.25;82.49
75466;HTU21D;64049;46.290;44.240;2022-12-29T07:05:32;1.32;82.38
75466;HTU21D;64049;46.290;44.240;2022-12-29T07:07:58;1.40;82.29
75466;HTU21D;64049;46.290;44.240;2022-12-29T07:10:24;1.46;82.11
75466;HTU21D;64049;46.290;44.240;2022-12-29T07:12:50;1.49;81.88
75466;HTU21D;64049;46.290;44.240;2022-12-29T07:15:16;1.51;81.54
75466;HTU21D;64049;46.290;44.240;2022-12-29T07:17:42;1.53;81.30
75466;HTU21D;64049;46.290;44.240;2022-12-29T07:20:08;1.56;80.99
75466;HTU21D;64049;46.290;44.240;2022-12-29T07:22:34;1.60;80.73
75466;HTU21D;64049;46.290;44.240;2022-12-29T07:25:00;1.67;80.69
75466;HTU21D;64049;46.290;44.240;2022-12-29T07:27:26;1.68;80.46
75466;HTU21D;64049;46.290;44.240;2022-12-29T07:29:52;1.73;80.56
75466;HTU21D;64049;46.290;44.240;2022-12-29T07:32:18;1.77;80.32
75466;HTU21D;64049;46.290;44.240;2022-12-29T07:34:44;1.76;79.99
75466;HTU21D;64049;46.290;44.240;2022-12-29T07:37:15;1.77;79.82
75466;HTU21D;64049;46.290;44.240;2022-12-29T07:39:41;1.79;79.63
75466;HTU21D;64049;46.290;44.240;2022-12-29T07:42:07;1.85;79.61
75466;HTU21D;64049;46.290;44.240;2022-12-29T07:44:40;1.88;79.29
75466;HTU21D;64049;46.290;44.240;2022-12-29T07:47:17;1.93;79.11
75466;HTU21D;64049;46.290;44.240;2022-12-29T07:49:43;1.96;78.66
75466;HTU21D;64049;46.290;44.240;2022-12-29T07:52:09;1.97;78.31
75466;HTU21D;64049;46.290;44.240;2022-12-29T07:54:35;2.05;78.06
75466;HTU21D;64049;46.290;44.240;2022-12-29T07:57:01;2.05;77.32
75466;HTU21D;64049;46.290;44.240;2022-12-29T07:59:27;2.08;76.94
75466;HTU21D;64049;46.290;44.240;2022-12-29T08:01:54;2.12;76.93
75466;HTU21D;64049;46.290;44.240;2022-12-29T08:04:19;2.20;77.02
75466;HTU21D;64049;46.290;44.240;2022-12-29T08:06:45;2.21;76.67
75466;HTU21D;64049;46.290;44.240;2022-12-29T08:09:11;2.16;75.83
75466;HTU21D;64049;46.290;44.240;2022-12-29T08:11:38;2.15;75.44
75466;HTU21D;64049;46.290;44.240;2022-12-29T08:14:04;2.21;75.43
75466;HTU21D;64049;46.290;44.240;2022-12-29T08:16:30;2.21;74.41
75466;HTU21D;64049;46.290;44.240;2022-12-29T08:18:56;2.25;74.58
75466;HTU21D;64049;46.290;44.240;2022-12-29T08:21:22;2.23;73.62
75466;HTU21D;64049;46.290;44.240;2022-12-29T08:23:48;2.23;73.49
75466;HTU21D;64049;46.290;44.240;2022-12-29T08:26:14;2.25;73.47
75466;HTU21D;64049;46.290;44.240;2022-12-29T08:28:40;2.29;74.02
75466;HTU21D;64049;46.290;44.240;2022-12-29T08:31:05;2.29;73.99
75466;HTU21D;64049;46.290;44.240;2022-12-29T08:33:33;2.32;73.67
75466;HTU21D;64049;46.290;44.240;2022-12-29T08:36:01;2.34;72.32
75466;HTU21D;64049;46.290;44.240;2022-12-29T08:38:28;2.40;72.41
75466;HTU21D;64049;46.290;44.240;2022-12-29T08:40:55;2.46;72.25
75466;HTU21D;64049;46.290;44.240;2022-12-29T08:43:25;2.46;71.93
75466;HTU21D;64049;46.290;44.240;2022-12-29T08:45:51;2.46;71.32
75466;HTU21D;64049;46.290;44.240;2022-12-29T08:48:17;2.49;71.19
75466;HTU21D;64049;46.290;44.240;2022-12-29T08:50:46;2.51;70.63
75466;HTU21D;64049;46.290;44.240;2022-12-29T08:53:14;2.52;69.08
75466;HTU21D;64049;46.290;44.240;2022-12-29T08:55:40;2.43;67.07
75466;HTU21D;64049;46.290;44.240;2022-12-29T08:58:06;2.42;66.45
75466;HTU21D;64049;46.290;44.240;2022-12-29T09:00:34;2.40;65.90
75466;HTU21D;64049;46.290;44.240;2022-12-29T09:03:03;2.41;64.98
75466;HTU21D;64049;46.290;44.240;2022-12-29T09:05:29;2.50;64.95
75466;HTU21D;64049;46.290;44.240;2022-12-29T09:07:55;2.57;63.89
75466;HTU21D;64049;46.290;44.240;2022-12-29T09:10:20;2.59;62.90
75466;HTU21D;64049;46.290;44.240;2022-12-29T09:12:46;2.62;63.37
75466;HTU21D;64049;46.290;44.240;2022-12-29T09:15:12;2.66;63.54
75466;HTU21D;64049;46.290;44.240;2022-12-29T09:17:38;2.64;62.79
75466;HTU21D;64049;46.290;44.240;2022-12-29T09:20:17;2.59;62.72
75466;HTU21D;64049;46.290;44.240;2022-12-29T09:22:44;2.56;61.32
75466;HTU21D;64049;46.290;44.240;2022-12-29T09:25:10;2.50;61.75
75466;HTU21D;64049;46.290;44.240;2022-12-29T09:27:37;2.42;62.21
75466;HTU21D;64049;46.290;44.240;2022-12-29T09:30:04;2.35;63.22
75466;HTU21D;64049;46.290;44.240;2022-12-29T09:32:32;2.35;64.11
75466;HTU21D;64049;46.290;44.240;2022-12-29T09:34:58;2.35;63.56
75466;HTU21D;64049;46.290;44.240;2022-12-29T09:37:24;2.28;62.67
75466;HTU21D;64049;46.290;44.240;2022-12-29T09:39:50;2.24;61.60
75466;HTU21D;64049;46.290;44.240;2022-12-29T09:42:27;2.30;62.62
75466;HTU21D;64049;46.290;44.240;2022-12-29T09:47:27;2.45;60.84
75466;HTU21D;64049;46.290;44.240;2022-12-29T09:52:22;2.71;58.95
75466;HTU21D;64049;46.290;44.240;2022-12-29T09:55:15;2.86;58.80
75466;HTU21D;64049;46.290;44.240;2022-12-29T09:57:44;2.98;58.51
75466;HTU21D;64049;46.290;44.240;2022-12-29T10:00:17;3.18;59.21
75466;HTU21D;64049;46.290;44.240;2022-12-29T10:02:48;3.36;58.40
75466;HTU21D;64049;46.290;44.240;2022-12-29T10:05:46;3.39;58.08
75466;HTU21D;64049;46.290;44.240;2022-12-29T10:08:31;3.30;56.43
75466;HTU21D;64049;46.290;44.240;2022-12-29T10:16:54;3.36;56.88
75466;HTU21D;64049;46.290;44.240;2022-12-29T10:19:32;3.44;57.12
75466;HTU21D;64049;46.290;44.240;2022-12-29T10:24:52;3.48;56.97
75466;HTU21D;64049;46.290;44.240;2022-12-29T10:27:19;3.41;56.64
75466;HTU21D;64049;46.290;44.240;2022-12-29T10:29:52;3.33;56.47
75466;HTU21D;64049;46.290;44.240;2022-12-29T10:32:38;3.21;56.29
75466;HTU21D;64049;46.290;44.240;2022-12-29T10:37:42;3.00;57.35
75466;HTU21D;64049;46.290;44.240;2022-12-29T10:40:28;2.93;58.04
75466;HTU21D;64049;46.290;44.240;2022-12-29T10:43:27;2.87;59.20
75466;HTU21D;64049;46.290;44.240;2022-12-29T10:46:18;2.91;60.70
75466;HTU21D;64049;46.290;44.240;2022-12-29T10:48:46;2.91;60.30
75466;HTU21D;64049;46.290;44.240;2022-12-29T10:51:21;2.86;59.92
75466;HTU21D;64049;46.290;44.240;2022-12-29T10:53:53;2.87;59.81
75466;HTU21D;64049;46.290;44.240;2022-12-29T10:59:21;3.04;60.51
75466;HTU21D;64049;46.290;44.240;2022-12-29T11:02:39;3.11;60.88
75466;HTU21D;64049;46.290;44.240;2022-12-29T11:07:37;3.09;61.30
75466;HTU21D;64049;46.290;44.240;2022-12-29T11:13:03;3.20;62.86
75466;HTU21D;64049;46.290;44.240;2022-12-29T11:15:44;3.15;63.48
75466;HTU21D;64049;46.290;44.240;2022-12-29T11:18:33;3.04;63.95
75466;HTU21D;64049;46.290;44.240;2022-12-29T11:21:05;2.96;64.31
75466;HTU21D;64049;46.290;44.240;2022-12-29T11:23:40;2.88;64.56
75466;HTU21D;64049;46.290;44.240;2022-12-29T11:26:18;2.79;64.65
75466;HTU21D;64049;46.290;44.240;2022-12-29T11:28:47;2.72;64.76
75466;HTU21D;64049;46.290;44.240;2022-12-29T11:31:27;2.68;65.21
75466;HTU21D;64049;46.290;44.240;2022-12-29T11:33:53;2.64;65.73
75466;HTU21D;64049;46.290;44.240;2022-12-29T11:36:23;2.61;65.92
75466;HTU21D;64049;46.290;44.240;2022-12-29T11:38:51;2.57;65.95
75466;HTU21D;64049;46.290;44.240;2022-12-29T11:41:27;2.53;65.83
75466;HTU21D;64049;46.290;44.240;2022-12-29T11:43:57;2.47;65.89
75466;HTU21D;64049;46.290;44.240;2022-12-29T11:46:30;2.45;66.23
75466;HTU21D;64049;46.290;44.240;2022-12-29T11:48:57;2.45;66.40
75466;HTU21D;64049;46.290;44.240;2022-12-29T11:51:45;2.42;66.43
75466;HTU21D;64049;46.290;44.240;2022-12-29T11:54:34;2.40;66.56
75466;HTU21D;64049;46.290;44.240;2022-12-29T11:57:15;2.41;66.38
75466;HTU21D;64049;46.290;44.240;2022-12-29T11:59:43;2.41;66.40
75466;HTU21D;64049;46.290;44.240;2022-12-29T12:05:23;2.41;66.41
75466;HTU21D;64049;46.290;44.240;2022-12-29T12:08:05;2.36;66.53
75466;HTU21D;64049;46.290;44.240;2022-12-29T12:10:48;2.28;66.55
75466;HTU21D;64049;46.290;44.240;2022-12-29T12:13:37;2.20;66.93
75466;HTU21D;64049;46.290;44.240;2022-12-29T12:18:49;2.10;67.52
75466;HTU21D;64049;46.290;44.240;2022-12-29T12:21:25;2.07;67.65
75466;HTU21D;64049;46.290;44.240;2022-12-29T12:26:37;2.01;67.55
75466;HTU21D;64049;46.290;44.240;2022-12-29T12:29:14;1.95;67.72
75466;HTU21D;64049;46.290;44.240;2022-12-29T12:31:55;1.87;67.76
75466;HTU21D;64049;46.290;44.240;2022-12-29T12:34:37;1.81;67.65
75466;HTU21D;64049;46.290;44.240;2022-12-29T12:37:36;1.78;67.65
75466;HTU21D;64049;46.290;44.240;2022-12-29T12:40:38;1.72;67.83
75466;HTU21D;64049;46.290;44.240;2022-12-29T12:46:11;1.61;68.35
75466;HTU21D;64049;46.290;44.240;2022-12-29T12:58:40;1.29;69.82
75466;HTU21D;64049;46.290;44.240;2022-12-29T13:06:41;1.16;70.87
75466;HTU21D;64049;46.290;44.240;2022-12-29T13:14:10;1.12;71.45
75466;HTU21D;64049;46.290;44.240;2022-12-29T13:19:10;1.12;71.71
75466;HTU21D;64049;46.290;44.240;2022-12-29T13:30:49;0.98;72.34
75466;HTU21D;64049;46.290;44.240;2022-12-29T13:36:10;0.94;72.45
75466;HTU21D;64049;46.290;44.240;2022-12-29T13:38:51;0.90;72.65
75466;HTU21D;64049;46.290;44.240;2022-12-29T13:41:28;0.81;72.87
75466;HTU21D;64049;46.290;44.240;2022-12-29T13:43:57;0.71;73.09
75466;HTU21D;64049;46.290;44.240;2022-12-29T13:46:28;0.64;73.37
75466;HTU21D;64049;46.290;44.240;2022-12-29T13:48:58;0.62;73.60
75466;HTU21D;64049;46.290;44.240;2022-12-29T13:51:26;0.60;73.63
75466;HTU21D;64049;46.290;44.240;2022-12-29T13:54:17;0.54;73.66
75466;HTU21D;64049;46.290;44.240;2022-12-29T13:56:55;0.52;73.70
75466;HTU21D;64049;46.290;44.240;2022-12-29T13:59:36;0.54;73.87
75466;HTU21D;64049;46.290;44.240;2022-12-29T14:05:29;0.52;74.02
75466;HTU21D;64049;46.290;44.240;2022-12-29T14:08:03;0.52;74.06
75466;HTU21D;64049;46.290;44.240;2022-12-29T14:10:35;0.50;74.12
75466;HTU21D;64049;46.290;44.240;2022-12-29T14:13:14;0.49;74.22
75466;HTU21D;64049;46.290;44.240;2022-12-29T14:15:43;0.47;74.29
75466;HTU21D;64049;46.290;44.240;2022-12-29T14:18:15;0.49;74.38
75466;HTU21D;64049;46.290;44.240;2022-12-29T14:23:43;0.47;74.52
75466;HTU21D;64049;46.290;44.240;2022-12-29T14:26:53;0.46;74.57
75466;HTU21D;64049;46.290;44.240;2022-12-29T14:31:52;0.45;74.62
75466;HTU21D;64049;46.290;44.240;2022-12-29T14:37:02;0.44;74.65
75466;HTU21D;64049;46.290;44.240;2022-12-29T14:39:38;0.45;74.63
75466;HTU21D;64049;46.290;44.240;2022-12-29T14:42:12;0.47;74.61
75466;HTU21D;64049;46.290;44.240;2022-12-29T14:44:53;0.47;74.68
75466;HTU21D;64049;46.290;44.240;2022-12-29T14:49:54;0.46;74.78
75466;HTU21D;64049;46.290;44.240;2022-12-29T14:52:23;0.46;74.85
75466;HTU21D;64049;46.290;44.240;2022-12-29T14:54:53;0.45;74.88
75466;HTU21D;64049;46.290;44.240;2022-12-29T14:57:25;0.43;74.91
75466;HTU21D;64049;46.290;44.240;2022-12-29T15:00:03;0.42;74.99
75466;HTU21D;64049;46.290;44.240;2022-12-29T15:02:34;0.39;75.10
75466;HTU21D;64049;46.290;44.240;2022-12-29T15:05:05;0.36;75.19
75466;HTU21D;64049;46.290;44.240;2022-12-29T15:07:32;0.32;75.33
75466;HTU21D;64049;46.290;44.240;2022-12-29T15:10:13;0.28;75.52
75466;HTU21D;64049;46.290;44.240;2022-12-29T15:12:51;0.21;75.68
75466;HTU21D;64049;46.290;44.240;2022-12-29T15:15:26;0.22;75.79
75466;HTU21D;64049;46.290;44.240;2022-12-29T15:17:53;0.20;75.81
75466;HTU21D;64049;46.290;44.240;2022-12-29T15:20:30;0.18;75.80
75466;HTU21D;64049;46.290;44.240;2022-12-29T15:23:00;0.17;75.86
75466;HTU21D;64049;46.290;44.240;2022-12-29T15:25:28;0.16;75.85
75466;HTU21D;64049;46.290;44.240;2022-12-29T15:28:01;0.16;75.89
75466;HTU21D;64049;46.290;44.240;2022-12-29T15:30:27;0.17;75.99
75466;HTU21D;64049;46.290;44.240;2022-12-29T15:32:54;0.15;75.96
75466;HTU21D;64049;46.290;44.240;2022-12-29T15:35:27;0.12;76.08
75466;HTU21D;64049;46.290;44.240;2022-12-29T15:37:54;0.13;76.16
75466;HTU21D;64049;46.290;44.240;2022-12-29T15:40:23;0.10;76.31
75466;HTU21D;64049;46.290;44.240;2022-12-29T15:45:39;0.06;76.41
75466;HTU21D;64049;46.290;44.240;2022-12-29T15:48:13;0.06;76.45
75466;HTU21D;64049;46.290;44.240;2022-12-29T15:50:41;0.03;76.41
75466;HTU21D;64049;46.290;44.240;2022-12-29T15:53:28;0.02;76.48
75466;HTU21D;64049;46.290;44.240;2022-12-29T15:56:06;-0.00;76.52
75466;HTU21D;64049;46.290;44.240;2022-12-29T15:58:41;-0.01;76.57
75466;HTU21D;64049;46.290;44.240;2022-12-29T16:01:36;-0.00;76.71
75466;HTU21D;64049;46.290;44.240;2022-12-29T16:06:59;0.01;76.68
75466;HTU21D;64049;46.290;44.240;2022-12-29T16:09:54;-0.00;76.69
75466;HTU21D;64049;46.290;44.240;2022-12-29T16:12:27;0.01;76.71
75466;HTU21D;64049;46.290;44.240;2022-12-29T16:18:25;0.03;76.93
75466;HTU21D;64049;46.290;44.240;2022-12-29T16:24:38;-0.00;76.99
75466;HTU21D;64049;46.290;44.240;2022-12-29T16:29:31;-0.01;77.13
75466;HTU21D;64049;46.290;44.240;2022-12-29T16:31:58;0.01;77.25
75466;HTU21D;64049;46.290;44.240;2022-12-29T16:37:27;-0.00;77.24
75466;HTU21D;64049;46.290;44.240;2022-12-29T16:39:53;0.01;77.27
75466;HTU21D;64049;46.290;44.240;2022-12-29T16:46:37;-0.12;77.40
75466;HTU21D;64049;46.290;44.240;2022-12-29T16:49:16;-0.16;77.50
75466;HTU21D;64049;46.290;44.240;2022-12-29T16:51:42;-0.21;77.53
75466;HTU21D;64049;46.290;44.240;2022-12-29T16:54:30;-0.24;77.65
75466;HTU21D;64049;46.290;44.240;2022-12-29T16:56:57;-0.24;77.69
75466;HTU21D;64049;46.290;44.240;2022-12-29T16:59:48;-0.28;77.71
75466;HTU21D;64049;46.290;44.240;2022-12-29T17:02:16;-0.29;77.85
75466;HTU21D;64049;46.290;44.240;2022-12-29T17:04:44;-0.34;77.90
75466;HTU21D;64049;46.290;44.240;2022-12-29T17:07:21;-0.38;77.98
75466;HTU21D;64049;46.290;44.240;2022-12-29T17:09:48;-0.39;78.05
75466;HTU21D;64049;46.290;44.240;2022-12-29T17:12:22;-0.42;78.04
75466;HTU21D;64049;46.290;44.240;2022-12-29T17:15:05;-0.46;78.10
75466;HTU21D;64049;46.290;44.240;2022-12-29T17:17:35;-0.49;78.24
75466;HTU21D;64049;46.290;44.240;2022-12-29T17:20:17;-0.52;78.37
75466;HTU21D;64049;46.290;44.240;2022-12-29T17:22:44;-0.55;78.50
75466;HTU21D;64049;46.290;44.240;2022-12-29T17:25:15;-0.59;78.55
75466;HTU21D;64049;46.290;44.240;2022-12-29T17:27:46;-0.59;78.62
75466;HTU21D;64049;46.290;44.240;2022-12-29T17:30:18;-0.59;78.72
75466;HTU21D;64049;46.290;44.240;2022-12-29T17:33:03;-0.58;78.78
75466;HTU21D;64049;46.290;44.240;2022-12-29T17:35:30;-0.58;78.78
75466;HTU21D;64049;46.290;44.240;2022-12-29T17:37:56;-0.60;78.79
75466;HTU21D;64049;46.290;44.240;2022-12-29T17:40:31;-0.61;78.82
75466;HTU21D;64049;46.290;44.240;2022-12-29T17:43:01;-0.66;78.80
75466;HTU21D;64049;46.290;44.240;2022-12-29T17:45:28;-0.70;78.84
75466;HTU21D;64049;46.290;44.240;2022-12-29T17:47:56;-0.73;78.91
75466;HTU21D;64049;46.290;44.240;2022-12-29T17:50:25;-0.76;79.04
75466;HTU21D;64049;46.290;44.240;2022-12-29T17:52:59;-0.82;79.11
75466;HTU21D;64049;46.290;44.240;2022-12-29T17:55:26;-0.85;79.24
75466;HTU21D;64049;46.290;44.240;2022-12-29T17:57:53;-0.87;79.37
75466;HTU21D;64049;46.290;44.240;2022-12-29T18:00:22;-0.87;79.56
75466;HTU21D;64049;46.290;44.240;2022-12-29T18:02:49;-0.89;79.59
75466;HTU21D;64049;46.290;44.240;2022-12-29T18:05:26;-0.93;79.66